Time;durP1;ratioP1;P1;durP2;ratioP2;P2;SDS_P1;SDS_P2;PMS_P1;PMS_P2;Temp;Humidity;BMP_temperature;BMP_pressure;BME280_temperature;BME280_humidity;BME280_pressure;Samples;Min_cycle;Max_cycle;Signal;HPM_P1;HPM_P2
2022/04/07 00:01:20;;;;;;;1.70;1.10;;;9.80;99.90;9.80;98710.00;;;;4821972;28;89080;-67
2022/04/07 00:03:46;;;;;;;2.50;0.87;;;9.80;99.90;9.80;98697.00;;;;4838931;28;110760;-65
2022/04/07 00:06:12;;;;;;;1.03;0.93;;;9.80;99.90;9.80;98695.00;;;;4839653;28;91287;-66
2022/04/07 00:08:41;;;;;;;8.53;1.33;;;9.80;99.90;9.80;98694.00;;;;4839390;28;88033;-66
2022/04/07 00:11:08;;;;;;;0.83;0.83;;;9.70;99.90;9.80;98693.00;;;;4839752;28;88226;-65
2022/04/07 00:13:34;;;;;;;1.40;0.97;;;9.90;99.90;9.80;98690.00;;;;4839718;28;98435;-66
2022/04/07 00:16:00;;;;;;;2.93;1.20;;;9.80;99.90;9.70;98683.00;;;;4840602;28;87844;-64
2022/04/07 00:18:27;;;;;;;1.03;0.87;;;9.70;99.90;9.80;98675.00;;;;4840266;28;90812;-66
2022/04/07 00:20:53;;;;;;;1.13;1.03;;;9.80;99.90;9.80;98679.00;;;;4839983;28;87652;-65
2022/04/07 00:23:21;;;;;;;1.27;1.13;;;9.70;99.90;9.80;98679.00;;;;4822659;28;87918;-66
2022/04/07 00:25:47;;;;;;;1.80;1.07;;;9.80;99.90;9.80;98676.00;;;;4839352;28;88884;-67
2022/04/07 00:28:13;;;;;;;1.83;1.03;;;9.80;99.90;9.80;98681.00;;;;4839493;28;89592;-66
2022/04/07 00:30:43;;;;;;;2.10;0.70;;;9.80;99.90;9.80;98672.00;;;;4822433;28;87813;-66
2022/04/07 00:33:09;;;;;;;1.80;0.90;;;9.80;99.90;9.80;98664.00;;;;4839662;28;87809;-65
2022/04/07 00:35:34;;;;;;;0.80;0.73;;;9.80;99.90;9.70;98675.00;;;;4839836;28;88156;-66
2022/04/07 00:38:01;;;;;;;1.10;1.00;;;9.70;99.90;9.70;98669.00;;;;4839304;28;93892;-65
2022/04/07 00:40:27;;;;;;;3.83;1.37;;;9.70;99.90;9.80;98668.00;;;;4839684;28;88233;-66
2022/04/07 00:42:53;;;;;;;1.20;1.00;;;9.80;99.90;9.80;98662.00;;;;4840186;28;86933;-64
2022/04/07 00:45:22;;;;;;;1.60;0.97;;;9.80;99.90;9.70;98646.00;;;;4839110;28;87800;-64
2022/04/07 00:47:49;;;;;;;1.00;1.00;;;9.80;99.90;9.80;98658.00;;;;4839188;28;111499;-65
2022/04/07 00:50:18;;;;;;;1.37;0.73;;;9.70;99.90;9.70;98656.00;;;;4837651;28;110541;-67
2022/04/07 00:52:51;;;;;;;3.30;0.97;;;9.70;99.90;9.70;98661.00;;;;4847613;28;89648;-66
2022/04/07 00:55:18;;;;;;;1.83;1.37;;;9.70;99.90;9.60;98656.00;;;;4803999;29;87999;-65
2022/04/07 00:57:45;;;;;;;1.37;0.90;;;9.60;99.90;9.60;98655.00;;;;4820052;29;88150;-65
2022/04/07 01:00:13;;;;;;;2.13;0.93;;;9.60;99.90;9.60;98652.00;;;;4838541;28;88096;-65
2022/04/07 01:02:39;;;;;;;1.10;1.00;;;9.60;99.90;9.60;98648.00;;;;4839492;28;87968;-66
2022/04/07 01:05:07;;;;;;;1.03;0.60;;;9.60;99.90;9.50;98641.00;;;;4839280;28;88051;-67
2022/04/07 01:07:37;;;;;;;5.30;1.10;;;9.60;99.90;9.50;98638.00;;;;4839682;28;87796;-66
2022/04/07 01:10:10;;;;;;;1.47;1.10;;;9.60;99.90;9.50;98639.00;;;;4838804;28;87795;-65
2022/04/07 01:12:37;;;;;;;1.30;0.97;;;9.50;99.90;9.50;98638.00;;;;4838814;28;87812;-67
2022/04/07 01:15:06;;;;;;;1.50;1.10;;;9.50;99.90;9.50;98628.00;;;;4838467;28;101427;-66
2022/04/07 01:17:34;;;;;;;1.20;0.83;;;9.50;99.90;9.40;98630.00;;;;4839252;28;88316;-66
2022/04/07 01:20:01;;;;;;;1.20;0.97;;;9.50;99.90;9.40;98624.00;;;;4821277;28;89354;-67
2022/04/07 01:22:26;;;;;;;1.13;1.00;;;9.40;99.90;9.40;98622.00;;;;4839759;28;89293;-67
2022/04/07 01:24:52;;;;;;;2.10;1.20;;;9.40;99.90;9.40;98607.00;;;;4838616;28;107897;-65
2022/04/07 01:27:19;;;;;;;1.10;0.97;;;9.50;99.90;9.40;98608.00;;;;4839546;28;89105;-66
2022/04/07 01:29:45;;;;;;;1.60;1.33;;;9.50;99.90;9.50;98606.00;;;;4838204;28;88584;-66
2022/04/07 01:32:22;;;;;;;1.87;1.27;;;9.40;99.90;9.50;98609.00;;;;4839188;28;110140;-65
2022/04/07 01:34:49;;;;;;;1.20;1.10;;;9.50;99.90;9.50;98601.00;;;;4820984;28;87785;-65
2022/04/07 01:37:16;;;;;;;5.40;1.43;;;9.50;99.90;9.50;98602.00;;;;4820519;28;118773;-65
2022/04/07 01:39:43;;;;;;;1.03;0.77;;;9.50;99.90;9.50;98598.00;;;;4837477;28;101693;-65
2022/04/07 01:42:12;;;;;;;1.80;1.50;;;9.50;99.90;9.50;98596.00;;;;4838436;28;111232;-67
2022/04/07 01:44:46;;;;;;;1.43;0.93;;;9.50;99.90;9.50;98596.00;;;;4820386;28;92116;-66
2022/04/07 01:47:14;;;;;;;2.57;1.37;;;9.70;99.90;9.40;98597.00;;;;4821047;28;87798;-66
2022/04/07 01:49:42;;;;;;;1.87;0.90;;;9.50;99.90;9.40;98585.00;;;;4837777;28;88758;-65
2022/04/07 01:52:09;;;;;;;1.70;0.77;;;9.40;99.90;9.40;98584.00;;;;4824599;28;96688;-68
2022/04/07 01:54:37;;;;;;;1.37;0.90;;;9.40;99.90;9.40;98587.00;;;;4844076;28;87815;-65
2022/04/07 01:57:03;;;;;;;1.47;0.90;;;9.40;99.90;9.30;98575.00;;;;4824815;28;88254;-65
2022/04/07 01:59:29;;;;;;;2.60;1.10;;;9.40;99.90;9.30;98573.00;;;;4841249;28;108626;-66
2022/04/07 02:01:55;;;;;;;1.00;0.80;;;9.40;99.90;9.30;98577.00;;;;4824186;28;91142;-66
2022/04/07 02:04:20;;;;;;;1.13;0.90;;;9.40;99.90;9.30;98578.00;;;;4840471;28;109241;-65
2022/04/07 02:06:46;;;;;;;4.67;1.30;;;9.30;99.90;9.30;98576.00;;;;4842234;28;88623;-67
2022/04/07 02:09:12;;;;;;;2.50;1.37;;;9.30;99.90;9.30;98568.00;;;;4840488;28;117684;-65
2022/04/07 02:11:37;;;;;;;1.57;1.30;;;9.30;99.90;9.20;98568.00;;;;4842492;28;87704;-66
2022/04/07 02:14:03;;;;;;;1.63;1.10;;;9.30;99.90;9.20;98564.00;;;;4841451;28;87725;-66
2022/04/07 02:16:30;;;;;;;2.10;1.13;;;9.30;99.90;9.20;98561.00;;;;4841528;28;88427;-65
2022/04/07 02:18:56;;;;;;;1.13;0.80;;;9.20;99.90;9.20;98556.00;;;;4841633;28;88661;-65
2022/04/07 02:21:22;;;;;;;1.17;0.90;;;9.20;99.90;9.20;98561.00;;;;4841960;28;87017;-65
2022/04/07 02:23:48;;;;;;;1.10;0.90;;;9.20;99.90;9.20;98553.00;;;;4841083;28;109073;-66
2022/04/07 02:26:17;;;;;;;1.40;1.30;;;9.20;99.90;9.10;98548.00;;;;4842277;28;88697;-66
2022/04/07 02:28:43;;;;;;;0.80;0.80;;;9.10;99.90;9.10;98541.00;;;;4840778;28;89315;-67
2022/04/07 02:31:11;;;;;;;1.13;0.90;;;9.10;99.90;9.00;98546.00;;;;4841700;28;92896;-66
2022/04/07 02:33:37;;;;;;;2.20;0.63;;;9.10;99.90;9.00;98541.00;;;;4823950;28;88205;-65
2022/04/07 02:36:05;;;;;;;1.10;0.97;;;9.10;99.90;9.00;98544.00;;;;4840654;28;94238;-66
2022/04/07 02:38:31;;;;;;;1.37;0.97;;;9.10;99.90;9.00;98547.00;;;;4841723;28;87985;-66
2022/04/07 02:40:57;;;;;;;10.37;1.83;;;9.00;99.90;9.00;98539.00;;;;4840770;28;100821;-66
2022/04/07 02:43:23;;;;;;;1.30;0.90;;;9.10;99.90;9.00;98549.00;;;;4840930;28;107182;-63
2022/04/07 02:45:48;;;;;;;1.40;0.97;;;9.00;99.90;9.00;98546.00;;;;4842418;28;88287;-67
2022/04/07 02:48:14;;;;;;;0.90;0.90;;;9.00;99.90;9.00;98538.00;;;;4840251;28;116491;-64
2022/04/07 02:50:40;;;;;;;2.87;1.07;;;9.00;99.90;9.00;98546.00;;;;4839741;28;111450;-64
2022/04/07 02:53:05;;;;;;;1.17;1.03;;;9.00;99.90;9.00;98538.00;;;;4849062;28;99258;-64
2022/04/07 02:55:31;;;;;;;2.37;0.87;;;9.00;99.90;8.90;98530.00;;;;4839604;28;116475;-65
2022/04/07 02:58:00;;;;;;;1.27;0.87;;;9.00;99.90;8.90;98527.00;;;;4839743;28;117708;-65
2022/04/07 03:00:26;;;;;;;1.23;0.90;;;8.90;99.90;8.90;98530.00;;;;4839243;28;111270;-64
2022/04/07 03:02:52;;;;;;;1.33;1.23;;;8.90;99.90;8.90;98518.00;;;;4840471;28;108902;-64
2022/04/07 03:05:18;;;;;;;1.17;1.07;;;9.00;99.90;8.90;98520.00;;;;4840260;28;108730;-65
2022/04/07 03:07:43;;;;;;;2.17;1.47;;;8.90;99.90;9.00;98517.00;;;;4839478;28;88566;-66
2022/04/07 03:10:09;;;;;;;1.13;1.03;;;9.00;99.90;8.90;98515.00;;;;4840706;28;112356;-66
2022/04/07 03:12:35;;;;;;;1.90;1.27;;;9.00;99.90;8.90;98499.00;;;;4840015;28;109785;-66
2022/04/07 03:15:02;;;;;;;1.40;1.30;;;9.00;99.90;8.90;98497.00;;;;4841262;28;88055;-66
2022/04/07 03:17:27;;;;;;;1.00;0.90;;;9.00;99.90;8.90;98489.00;;;;4837634;28;88644;-64
2022/04/07 03:19:53;;;;;;;0.83;0.83;;;8.90;99.90;8.80;98477.00;;;;4840660;28;101127;-64
2022/04/07 03:22:19;;;;;;;1.73;1.23;;;8.90;99.90;8.90;98487.00;;;;4823672;28;87786;-64
2022/04/07 03:24:46;;;;;;;1.20;1.13;;;8.90;99.90;8.90;98477.00;;;;4840009;28;109611;-64
2022/04/07 03:27:12;;;;;;;1.60;0.90;;;8.90;99.90;8.90;98485.00;;;;4840619;28;88059;-64
2022/04/07 03:29:38;;;;;;;1.53;1.27;;;8.90;99.90;8.90;98490.00;;;;4839267;28;104100;-65
2022/04/07 03:32:04;;;;;;;2.60;1.10;;;8.90;99.90;9.00;98491.00;;;;4840735;28;87893;-66
2022/04/07 03:34:36;;;;;;;1.07;0.90;;;9.00;99.90;9.00;98494.00;;;;4840196;28;88003;-65
2022/04/07 03:37:06;;;;;;;3.03;1.23;;;9.00;99.90;9.00;98476.00;;;;4840294;28;88535;-65
2022/04/07 03:39:33;;;;;;;3.03;1.10;;;9.00;99.90;9.10;98474.00;;;;4822633;28;87870;-65
2022/04/07 03:41:59;;;;;;;2.43;0.80;;;9.10;99.90;9.10;98466.00;;;;4839954;28;93328;-65
2022/04/07 03:44:25;;;;;;;1.20;1.10;;;9.10;99.90;9.10;98468.00;;;;4839130;28;109426;-65
2022/04/07 03:46:51;;;;;;;2.27;1.40;;;9.10;99.90;9.10;98473.00;;;;4840423;28;88265;-65
2022/04/07 03:49:17;;;;;;;1.23;1.13;;;9.10;99.90;9.20;98477.00;;;;4839211;28;99614;-64
2022/04/07 03:51:42;;;;;;;0.77;0.77;;;9.20;99.90;9.20;98471.00;;;;4840333;28;87810;-65
2022/04/07 03:54:08;;;;;;;1.23;1.13;;;9.20;99.90;9.20;98474.00;;;;4848962;28;117459;-65
2022/04/07 03:56:34;;;;;;;1.60;1.03;;;9.20;99.90;9.20;98472.00;;;;4840010;28;88571;-65
2022/04/07 03:59:00;;;;;;;0.70;0.70;;;9.20;99.90;9.30;98475.00;;;;4840785;28;87186;-66
2022/04/07 04:01:29;;;;;;;1.40;1.30;;;9.30;99.90;9.30;98450.00;;;;4838606;28;108652;-65
2022/04/07 04:03:55;;;;;;;2.20;1.30;;;9.30;99.90;9.30;98464.00;;;;4821656;28;88849;-65
2022/04/07 04:06:21;;;;;;;2.33;0.93;;;9.40;99.90;9.40;98462.00;;;;4838669;28;111130;-64
2022/04/07 04:08:47;;;;;;;1.87;1.10;;;9.40;99.90;9.40;98462.00;;;;4839154;28;109283;-66
2022/04/07 04:11:13;;;;;;;1.53;1.07;;;9.40;99.90;9.50;98466.00;;;;4840160;28;88499;-64
2022/04/07 04:13:39;;;;;;;2.97;1.30;;;9.50;99.90;9.60;98465.00;;;;4839420;28;88434;-64
2022/04/07 04:16:06;;;;;;;0.90;0.90;;;9.50;99.90;9.60;98460.00;;;;4822298;28;89398;-65
2022/04/07 04:18:32;;;;;;;1.97;1.50;;;9.60;99.90;9.70;98469.00;;;;4839273;28;88091;-65
2022/04/07 04:20:58;;;;;;;1.00;0.77;;;9.60;99.90;9.70;98465.00;;;;4839388;28;87751;-66
2022/04/07 04:23:23;;;;;;;3.23;1.20;;;9.70;99.90;9.80;98446.00;;;;4838881;28;116119;-66
2022/04/07 04:25:49;;;;;;;1.40;0.97;;;9.70;99.90;9.80;98449.00;;;;4838963;28;116335;-65
2022/04/07 04:28:15;;;;;;;2.13;1.30;;;9.80;99.90;9.90;98464.00;;;;4837210;28;87960;-66
2022/04/07 04:30:41;;;;;;;2.93;1.60;;;9.80;99.90;10.00;98453.00;;;;4835309;28;109456;-65
2022/04/07 04:33:06;;;;;;;1.10;1.00;;;9.90;99.90;10.00;98441.00;;;;4836087;28;88531;-65
2022/04/07 04:35:32;;;;;;;3.10;1.13;;;9.90;99.90;10.10;98445.00;;;;4833601;28;88224;-65
2022/04/07 04:37:58;;;;;;;2.60;1.30;;;10.10;99.90;10.10;98430.00;;;;4826150;28;109620;-65
2022/04/07 04:40:23;;;;;;;3.47;1.17;;;10.10;99.90;10.20;98427.00;;;;4835261;28;108607;-65
2022/04/07 04:42:49;;;;;;;1.43;1.10;;;10.10;99.90;10.20;98420.00;;;;4834335;28;117711;-64
2022/04/07 04:45:15;;;;;;;3.03;1.33;;;10.20;99.90;10.30;98425.00;;;;4835330;28;105557;-65
2022/04/07 04:47:41;;;;;;;1.03;0.90;;;10.20;99.90;10.30;98420.00;;;;4835221;28;109300;-65
2022/04/07 04:50:07;;;;;;;0.93;0.87;;;10.30;99.90;10.30;98417.00;;;;4835443;28;87787;-65
2022/04/07 04:52:33;;;;;;;1.23;0.87;;;10.30;99.90;10.30;98411.00;;;;4840497;28;88366;-65
2022/04/07 04:54:59;;;;;;;0.67;0.67;;;10.30;99.90;10.40;98413.00;;;;4834585;28;118365;-64
2022/04/07 04:57:25;;;;;;;1.10;0.83;;;10.40;99.90;10.40;98409.00;;;;4835462;28;91769;-65
2022/04/07 04:59:51;;;;;;;1.97;1.07;;;10.40;99.90;10.50;98412.00;;;;4817627;28;87904;-64
2022/04/07 05:02:16;;;;;;;2.37;1.30;;;10.40;99.90;10.50;98406.00;;;;4834167;28;117092;-65
2022/04/07 05:04:42;;;;;;;1.67;0.90;;;10.50;99.90;10.50;98407.00;;;;4834747;28;88793;-65
2022/04/07 05:07:08;;;;;;;1.67;1.03;;;10.50;99.90;10.50;98386.00;;;;4835006;28;109018;-65
2022/04/07 05:09:34;;;;;;;2.53;0.73;;;10.50;99.90;10.60;98394.00;;;;4834792;28;109923;-64
2022/04/07 05:12:00;;;;;;;1.13;0.70;;;10.50;99.90;10.60;98389.00;;;;4835631;28;88443;-66
2022/04/07 05:14:26;;;;;;;1.07;0.97;;;10.50;99.90;10.60;98390.00;;;;4834393;28;100519;-65
2022/04/07 05:16:52;;;;;;;1.13;0.87;;;10.60;99.90;10.60;98376.00;;;;4835454;28;110021;-65
2022/04/07 05:19:17;;;;;;;1.67;0.80;;;10.50;99.90;10.60;98380.00;;;;4834645;28;89236;-65
2022/04/07 05:21:49;;;;;;;1.43;1.10;;;10.60;99.90;10.60;98365.00;;;;4834260;28;117915;-65
2022/04/07 05:24:17;;;;;;;2.03;1.03;;;10.60;99.90;10.70;98364.00;;;;4835263;28;88436;-66
2022/04/07 05:26:42;;;;;;;0.87;0.87;;;10.60;99.90;10.70;98368.00;;;;4835830;28;87851;-64
2022/04/07 05:29:08;;;;;;;0.70;0.70;;;10.60;99.90;10.70;98359.00;;;;4834301;28;107680;-65
2022/04/07 05:31:34;;;;;;;3.13;0.87;;;10.70;99.90;10.80;98374.00;;;;4836911;28;118501;-65
2022/04/07 05:34:00;;;;;;;0.90;0.70;;;10.70;99.90;10.80;98382.00;;;;4837825;28;117355;-65
2022/04/07 05:36:26;;;;;;;1.00;0.80;;;10.70;99.90;10.80;98370.00;;;;4838012;28;109485;-65
2022/04/07 05:38:52;;;;;;;2.27;1.30;;;10.80;99.90;10.90;98360.00;;;;4838227;28;87859;-65
2022/04/07 05:41:17;;;;;;;1.90;1.00;;;10.90;99.90;10.90;98364.00;;;;4836827;28;116767;-64
2022/04/07 05:43:43;;;;;;;1.00;0.70;;;10.90;99.90;11.00;98368.00;;;;4837175;28;117779;-65
2022/04/07 05:46:09;;;;;;;1.47;0.87;;;10.90;99.90;11.10;98375.00;;;;4837287;28;99175;-65
2022/04/07 05:48:34;;;;;;;0.60;0.57;;;11.00;99.90;11.10;98361.00;;;;4838165;28;92106;-65
2022/04/07 05:51:00;;;;;;;1.57;0.73;;;11.10;99.90;11.10;98366.00;;;;4838217;28;88382;-66
2022/04/07 05:53:26;;;;;;;2.33;0.97;;;11.10;99.90;11.20;98378.00;;;;4838631;28;111225;-65
2022/04/07 05:55:51;;;;;;;3.87;0.80;;;11.20;99.90;11.20;98357.00;;;;4837176;28;109539;-65
2022/04/07 05:58:17;;;;;;;0.77;0.70;;;11.20;99.90;11.30;98364.00;;;;4837106;28;108948;-65
2022/04/07 06:00:43;;;;;;;0.90;0.50;;;11.20;99.90;11.40;98350.00;;;;4838079;28;87230;-64
2022/04/07 06:03:08;;;;;;;0.30;0.30;;;11.20;99.90;11.40;98359.00;;;;4837986;28;104868;-65
2022/04/07 06:05:35;;;;;;;0.47;0.40;;;11.40;99.90;11.50;98368.00;;;;4837044;28;99362;-65
2022/04/07 06:08:02;;;;;;;2.00;0.73;;;11.40;99.90;11.60;98351.00;;;;4837522;28;88725;-65
2022/04/07 06:10:29;;;;;;;1.00;0.67;;;11.50;99.90;11.70;98344.00;;;;4837445;28;88262;-65
2022/04/07 06:12:55;;;;;;;0.93;0.57;;;11.60;99.90;11.80;98344.00;;;;4836770;28;106367;-64
2022/04/07 06:15:21;;;;;;;0.43;0.43;;;11.70;99.90;11.90;98353.00;;;;4836720;28;94679;-64
2022/04/07 06:17:48;;;;;;;0.80;0.67;;;11.80;99.90;12.00;98336.00;;;;4844469;28;88105;-64
2022/04/07 06:20:14;;;;;;;0.90;0.77;;;11.90;99.90;12.10;98347.00;;;;4837648;28;88916;-64
2022/04/07 06:22:42;;;;;;;1.03;0.90;;;12.00;99.90;12.20;98337.00;;;;4837170;28;105104;-66
2022/04/07 06:25:09;;;;;;;0.60;0.43;;;12.10;99.60;12.20;98341.00;;;;4838255;28;88791;-65
2022/04/07 06:27:41;;;;;;;0.57;0.53;;;12.20;98.60;12.30;98343.00;;;;4837506;28;87879;-65
2022/04/07 06:30:09;;;;;;;1.00;0.77;;;12.20;98.00;12.40;98327.00;;;;4837873;28;88375;-65
2022/04/07 06:32:36;;;;;;;1.70;0.50;;;12.30;97.00;12.50;98337.00;;;;4817483;28;88969;-64
2022/04/07 06:35:03;;;;;;;0.53;0.50;;;12.80;96.60;12.60;98320.00;;;;4836318;28;87897;-64
2022/04/07 06:37:29;;;;;;;0.67;0.63;;;12.50;96.70;12.70;98318.00;;;;4837134;28;101172;-64
2022/04/07 06:40:03;;;;;;;0.40;0.40;;;12.60;96.00;12.90;98303.00;;;;4836681;28;116823;-65
2022/04/07 06:42:30;;;;;;;0.50;0.50;;;12.70;96.00;13.00;98304.00;;;;4836992;28;96635;-64
2022/04/07 06:44:56;;;;;;;1.07;0.60;;;12.90;95.80;13.20;98312.00;;;;4837468;28;87802;-65
2022/04/07 06:47:22;;;;;;;2.97;0.60;;;13.10;95.40;13.40;98305.00;;;;4837782;28;87944;-64
2022/04/07 06:49:50;;;;;;;0.47;0.47;;;13.20;94.20;13.40;98297.00;;;;4837632;28;87339;-66
2022/04/07 06:52:16;;;;;;;0.83;0.50;;;13.30;93.00;13.40;98294.00;;;;4819508;28;87686;-65
2022/04/07 06:54:42;;;;;;;0.43;0.43;;;13.30;93.30;13.40;98280.00;;;;4837734;28;89436;-65
2022/04/07 06:57:07;;;;;;;1.07;0.60;;;13.30;93.10;13.40;98292.00;;;;4836513;28;108987;-64
2022/04/07 06:59:33;;;;;;;1.20;0.87;;;13.30;93.40;13.40;98294.00;;;;4818343;28;116270;-64
2022/04/07 07:01:58;;;;;;;0.87;0.40;;;13.40;93.20;13.40;98296.00;;;;4836497;28;116647;-64
2022/04/07 07:04:24;;;;;;;0.53;0.37;;;13.30;92.90;13.40;98285.00;;;;4836632;28;109313;-64
2022/04/07 07:06:50;;;;;;;0.40;0.40;;;13.30;93.30;13.40;98283.00;;;;4837355;28;87883;-64
2022/04/07 07:09:16;;;;;;;1.27;0.60;;;13.40;93.30;13.50;98273.00;;;;4836792;28;98612;-64
2022/04/07 07:11:42;;;;;;;0.30;0.30;;;13.40;92.60;13.40;98274.00;;;;4836196;28;117300;-64
2022/04/07 07:14:07;;;;;;;0.50;0.50;;;13.40;91.90;13.40;98260.00;;;;4836245;28;110559;-65
2022/04/07 07:16:33;;;;;;;0.50;0.40;;;13.40;92.10;13.30;98259.00;;;;4838290;28;87679;-64
2022/04/07 07:18:59;;;;;;;0.60;0.40;;;13.30;91.90;13.30;98258.00;;;;4835983;28;117371;-64
2022/04/07 07:21:24;;;;;;;0.30;0.30;;;13.30;92.20;13.20;98240.00;;;;4836646;28;88766;-64
2022/04/07 07:23:50;;;;;;;0.40;0.40;;;13.20;91.90;13.20;98246.00;;;;4835737;28;111458;-65
2022/04/07 07:26:16;;;;;;;1.63;0.60;;;13.20;92.10;13.20;98259.00;;;;4836113;28;109045;-64
2022/04/07 07:28:41;;;;;;;2.33;1.13;;;13.20;92.30;13.20;98257.00;;;;4837651;28;88295;-65
2022/04/07 07:31:07;;;;;;;0.80;0.40;;;13.20;92.30;13.30;98249.00;;;;4835741;28;118183;-65
2022/04/07 07:33:33;;;;;;;0.53;0.50;;;13.20;92.50;13.30;98234.00;;;;4836561;28;110010;-64
2022/04/07 07:35:58;;;;;;;0.40;0.40;;;13.20;91.80;13.30;98248.00;;;;4837150;28;87766;-64
2022/04/07 07:38:24;;;;;;;0.63;0.63;;;13.30;91.70;13.40;98240.00;;;;4836133;28;116247;-65
2022/04/07 07:40:50;;;;;;;2.47;0.73;;;13.30;92.00;13.50;98254.00;;;;4836510;28;94993;-65
2022/04/07 07:43:15;;;;;;;0.40;0.40;;;13.40;90.90;13.50;98232.00;;;;4835608;28;111109;-64
2022/04/07 07:45:41;;;;;;;0.37;0.37;;;13.40;90.30;13.50;98221.00;;;;4836439;28;89154;-64
2022/04/07 07:48:07;;;;;;;0.40;0.33;;;13.40;90.00;13.60;98229.00;;;;4834895;28;88734;-64
2022/04/07 07:50:33;;;;;;;0.33;0.30;;;13.50;90.10;13.80;98225.00;;;;4835219;28;118116;-64
2022/04/07 07:52:59;;;;;;;0.30;0.30;;;13.60;89.90;13.90;98213.00;;;;4838345;28;110306;-64
2022/04/07 07:55:25;;;;;;;0.40;0.30;;;13.80;88.50;14.10;98218.00;;;;4836280;28;96718;-63
2022/04/07 07:57:50;;;;;;;0.93;0.60;;;14.00;89.00;14.30;98213.00;;;;4835947;28;102070;-63
2022/04/07 08:00:17;;;;;;;0.40;0.30;;;14.10;88.70;14.50;98213.00;;;;4835508;28;117179;-64
2022/04/07 08:02:43;;;;;;;0.20;0.20;;;14.30;87.60;14.70;98221.00;;;;4836501;28;87271;-64
2022/04/07 08:05:09;;;;;;;0.97;0.40;;;14.50;86.20;14.70;98222.00;;;;4835214;28;88123;-63
2022/04/07 08:07:42;;;;;;;0.27;0.27;;;14.60;82.80;14.50;98213.00;;;;4835551;28;104880;-63
2022/04/07 08:10:09;;;;;;;1.50;0.50;;;14.50;83.60;14.40;98215.00;;;;4835452;28;90309;-65
2022/04/07 08:12:35;;;;;;;0.63;0.43;;;14.40;84.10;14.30;98219.00;;;;4836211;28;89131;-63
2022/04/07 08:15:01;;;;;;;1.20;0.57;;;14.30;83.80;14.30;98225.00;;;;4835068;28;98489;-65
2022/04/07 08:17:27;;;;;;;0.50;0.33;;;14.20;83.00;14.20;98206.00;;;;4835937;28;87995;-63
2022/04/07 08:19:52;;;;;;;0.43;0.40;;;14.20;84.10;14.20;98201.00;;;;4835302;28;117804;-63
2022/04/07 08:22:18;;;;;;;0.73;0.50;;;14.10;84.40;14.10;98196.00;;;;4836005;28;111173;-65
2022/04/07 08:24:44;;;;;;;0.53;0.30;;;14.10;84.80;14.20;98184.00;;;;4836462;28;88123;-64
2022/04/07 08:27:12;;;;;;;0.20;0.20;;;14.10;84.30;14.20;98187.00;;;;4843538;28;117549;-64
2022/04/07 08:29:38;;;;;;;0.10;0.10;;;14.10;85.20;14.30;98168.00;;;;4835564;28;88023;-63
2022/04/07 08:32:04;;;;;;;0.30;0.27;;;14.20;84.70;14.40;98169.00;;;;4835747;28;87749;-64
2022/04/07 08:34:30;;;;;;;0.27;0.10;;;14.30;84.20;14.60;98168.00;;;;4835199;28;88558;-65
2022/04/07 08:36:56;;;;;;;0.33;0.20;;;14.40;85.00;14.70;98156.00;;;;4836189;28;87888;-63
2022/04/07 08:39:21;;;;;;;0.40;0.20;;;14.60;84.10;14.80;98158.00;;;;4835072;28;116457;-63
2022/04/07 08:41:48;;;;;;;0.20;0.20;;;14.70;83.80;14.80;98159.00;;;;4834391;28;109707;-66
2022/04/07 08:44:16;;;;;;;0.20;0.20;;;14.70;82.50;14.80;98164.00;;;;4817885;28;88736;-65
2022/04/07 08:46:53;;;;;;;0.73;0.37;;;14.70;81.60;14.70;98163.00;;;;4835646;28;88690;-64
2022/04/07 08:49:21;;;;;;;0.63;0.20;;;14.70;81.90;14.80;98166.00;;;;4835709;28;88104;-66
2022/04/07 08:51:53;;;;;;;0.25;0.25;;;14.70;82.00;14.80;98164.00;;;;4836643;28;87997;-65
2022/04/07 08:54:20;;;;;;;0.45;0.45;;;14.70;82.40;14.80;98146.00;;;;4836045;28;88133;-65
2022/04/07 08:56:47;;;;;;;0.38;0.30;;;14.70;81.10;14.80;98150.00;;;;4835977;28;87701;-64
2022/04/07 08:59:13;;;;;;;0.10;0.10;;;14.70;80.70;14.90;98134.00;;;;4832920;28;102789;-66
2022/04/07 09:01:39;;;;;;;1.52;0.28;;;14.70;80.00;15.00;98147.00;;;;4835805;28;87860;-67
2022/04/07 09:04:05;;;;;;;0.10;0.10;;;14.80;81.30;15.20;98125.00;;;;4834048;28;108448;-66
2022/04/07 09:06:35;;;;;;;0.50;0.50;;;15.00;79.00;15.20;98123.00;;;;4834802;28;93975;-66
2022/04/07 09:09:19;;;;;;;0.10;0.10;;;15.10;78.20;15.30;98137.00;;;;4833252;28;88031;-65
2022/04/07 09:11:45;;;;;;;0.30;0.10;;;15.20;78.70;15.40;98120.00;;;;4830796;28;87855;-66
2022/04/07 09:14:12;;;;;;;0.00;0.00;;;15.20;76.70;15.40;98100.00;;;;4834265;28;87631;-66
2022/04/07 09:16:39;;;;;;;0.32;0.32;;;15.30;75.10;15.50;98113.00;;;;4835349;28;87194;-66
2022/04/07 09:19:07;;;;;;;0.60;0.32;;;15.30;74.30;15.60;98098.00;;;;4834700;28;87870;-65
2022/04/07 09:21:34;;;;;;;0.15;0.15;;;15.40;72.50;15.60;98084.00;;;;4836012;28;87601;-65
2022/04/07 09:24:05;;;;;;;0.28;0.20;;;15.40;71.80;15.50;98092.00;;;;4835646;28;89009;-65
2022/04/07 09:26:34;;;;;;;0.10;0.10;;;15.40;72.00;15.50;98083.00;;;;4819045;28;87983;-66
2022/04/07 09:29:14;;;;;;;0.10;0.10;;;15.40;71.90;15.40;98079.00;;;;4834935;28;87990;-65
2022/04/07 09:31:51;;;;;;;0.10;0.10;;;15.30;72.20;15.40;98088.00;;;;4834613;28;87893;-67
2022/04/07 09:34:32;;;;;;;0.35;0.10;;;15.30;72.90;15.40;98069.00;;;;4834791;28;88080;-67
2022/04/07 09:37:06;;;;;;;0.55;0.20;;;15.30;72.80;15.30;98093.00;;;;4835474;28;87912;-66
2022/04/07 09:39:33;;;;;;;0.22;0.22;;;15.20;72.40;15.30;98083.00;;;;4832634;28;87851;-68
2022/04/07 09:42:25;;;;;;;0.15;0.10;;;15.20;71.30;15.30;98060.00;;;;4835468;28;87017;-67
2022/04/07 09:44:59;;;;;;;0.60;0.50;;;15.20;72.20;15.30;98072.00;;;;4833391;28;87959;-67
2022/04/07 09:47:41;;;;;;;0.20;0.20;;;15.20;72.00;15.30;98058.00;;;;4817605;28;88025;-66
2022/04/07 09:50:29;;;;;;;0.30;0.30;;;15.20;70.90;15.30;98070.00;;;;4834537;28;89123;-65
2022/04/07 09:52:56;;;;;;;3.72;0.30;;;15.20;70.00;15.30;98057.00;;;;4821389;28;87694;-65
2022/04/07 09:55:35;;;;;;;0.25;0.25;;;15.20;69.70;15.30;98054.00;;;;4834014;28;87840;-65
2022/04/07 09:58:04;;;;;;;0.22;0.22;;;15.20;70.30;15.30;98052.00;;;;4835086;28;88187;-65
2022/04/07 10:00:31;;;;;;;0.13;0.13;;;15.20;70.20;15.30;98038.00;;;;4833719;28;110074;-66
2022/04/07 10:02:57;;;;;;;0.20;0.20;;;15.20;70.20;15.30;98032.00;;;;4834725;28;88416;-65
2022/04/07 10:05:24;;;;;;;0.17;0.17;;;15.20;71.20;15.40;98032.00;;;;4834949;28;87655;-65
2022/04/07 10:07:51;;;;;;;3.60;0.38;;;15.20;70.50;15.40;98013.00;;;;4835682;28;87231;-65
2022/04/07 10:10:18;;;;;;;0.20;0.20;;;15.20;69.90;15.40;97994.00;;;;4834429;28;88265;-65
2022/04/07 10:12:46;;;;;;;0.20;0.10;;;15.30;70.50;15.60;97998.00;;;;4833100;28;87726;-65
2022/04/07 10:15:12;;;;;;;0.22;0.22;;;15.40;69.50;15.70;98008.00;;;;4816565;28;98835;-66
2022/04/07 10:17:38;;;;;;;0.28;0.28;;;15.50;67.50;15.80;97985.00;;;;4836677;28;114340;-67
2022/04/07 10:20:11;;;;;;;0.32;0.30;;;15.60;65.70;15.90;97974.00;;;;4819473;28;90126;-66
2022/04/07 10:23:24;;;;;;;0.30;0.20;;;15.70;65.60;15.90;97978.00;;;;4835012;28;94069;-66
2022/04/07 10:25:50;;;;;;;0.70;0.52;;;15.80;65.50;15.90;97965.00;;;;4838433;28;87546;-66
2022/04/07 10:28:17;;;;;;;0.10;0.10;;;15.80;65.20;15.90;97937.00;;;;4834504;28;116646;-66
2022/04/07 10:30:47;;;;;;;0.38;0.35;;;15.80;64.90;16.10;97931.00;;;;4846109;28;87738;-67
2022/04/07 10:33:34;;;;;;;3.15;0.32;;;15.90;65.10;16.20;97951.00;;;;4850876;28;87248;-66
2022/04/07 10:36:07;;;;;;;0.20;0.20;;;16.00;64.30;16.20;97925.00;;;;4819321;28;88122;-66
2022/04/07 10:38:39;;;;;;;0.20;0.20;;;16.10;62.50;16.10;97930.00;;;;4851012;28;89387;-67
2022/04/07 10:41:05;;;;;;;0.98;0.40;;;16.00;62.20;16.00;97940.00;;;;4836680;28;88681;-67
2022/04/07 10:43:31;;;;;;;0.65;0.28;;;15.90;63.00;15.90;97931.00;;;;4820737;28;88199;-67
2022/04/07 10:46:05;;;;;;;3.47;0.30;;;15.90;62.20;15.80;97919.00;;;;4837906;28;88107;-67
2022/04/07 10:48:32;;;;;;;0.13;0.13;;;15.80;62.20;15.70;97904.00;;;;4819846;28;91115;-67
2022/04/07 10:51:03;;;;;;;0.47;0.30;;;15.60;62.00;15.80;97897.00;;;;4837555;28;87961;-67
2022/04/07 10:53:31;;;;;;;0.20;0.20;;;15.60;63.50;15.90;97903.00;;;;4838705;28;87826;-67
2022/04/07 10:56:06;;;;;;;0.45;0.25;;;15.70;63.70;16.00;97891.00;;;;4837153;28;87657;-67
2022/04/07 10:58:39;;;;;;;0.35;0.25;;;15.80;63.20;16.10;97903.00;;;;4837497;28;87546;-67